Pagrindinis puslapis
METAR-TAF:

METAR-TAF

Oro uostai :

Antananaryvas, Madagaskaras

platuma: 18-48S, ilguma: 047-29E, Aukštis: 1279 m

Dabartinis oras

Ataskaita buvo paskelbta 55 minutes, ne 06:00 UTC
Vėjas 10 kt iš Pietryčių, svyruoja nuo Rytų/Pietryčių ir Pietų
Temperatūra 20°C
Drėgmė 68%
Slėgis 1024 hPa
Matomumas 10 km arba daugiau
Mažai debesys ne aukštis 1700 ft
Išsisklaidę debesys ne aukštis 2000 ft

METAR: FMMI 100600Z 14010KT 110V170 9999 FEW017 SCT020 20/14 Q1024 NOSIG

Laikas: 09:55 (06:55 UTC)

Prognozė

Ataskaita buvo paskelbta 1 valandą ir 55 minutes, ne 05:00 UTC
Prognozė galioja nuo 10 metu 06 UTC su 11 metu 12 UTC
Vėjas 12 kt iš Pietų/Pietryčių
Matomumas 10 km arba daugiau
Mažai debesys ne aukštis 1700 ft
Išsisklaidę debesys ne aukštis 2000 ft

TAF: FMMI 100500Z 1006/1112 15012KT 9999 FEW017 SCT020

Orai ataskaitas ir orų prognozės (METAR, TAF).

turimą stotys yra geltonos ir raudonos taškus žemėlapyje.

Perkelti pele per norėdami pamatyti stoties vardą.

Tada spustelėkite, norėdami matyti oro stebėjimo ir prognozės.

Norėdami pakeisti žemėlapį: spustelėkite ant žalios mygtukų su juodo kryžiaus žemyn,; žalią mygtuką su brūkšneliu, jei norite nutolinti; arba žalių rodyklių gretimoms žemėlapius.


METAR-TAF: